createdAt,value
2022-10-18T00:01:01.481Z,75.71
2022-10-18T00:03:29.119Z,80.47
2022-10-18T00:05:56.288Z,77.85
2022-10-18T00:08:23.538Z,79.46
2022-10-18T00:10:50.974Z,76.77
2022-10-18T00:13:18.877Z,77.31
2022-10-18T00:15:57.392Z,76.63
2022-10-18T00:18:25.109Z,78.94
2022-10-18T00:21:06.315Z,80.35
2022-10-18T00:23:35.100Z,78.38
2022-10-18T00:26:06.195Z,78.95
2022-10-18T00:28:35.167Z,79.80
2022-10-18T00:31:13.910Z,76.73
2022-10-18T00:33:44.887Z,78.47
2022-10-18T00:36:12.994Z,77.52
2022-10-18T00:38:41.080Z,80.03
2022-10-18T00:41:11.599Z,78.90
2022-10-18T00:44:04.775Z,78.23
2022-10-18T00:46:38.636Z,80.04
2022-10-18T00:49:21.496Z,80.79
2022-10-18T00:52:19.709Z,77.55
2022-10-18T00:54:48.777Z,78.99
2022-10-18T00:57:16.313Z,81.09
2022-10-18T00:59:44.484Z,78.54
2022-10-18T01:02:15.051Z,79.75
2022-10-18T01:04:42.166Z,79.79
2022-10-18T01:07:37.185Z,78.13
2022-10-18T01:10:27.764Z,79.34
2022-10-18T01:13:03.321Z,78.49
2022-10-18T01:15:48.392Z,77.73
2022-10-18T01:18:31.950Z,78.30
2022-10-18T01:21:11.484Z,80.20
2022-10-18T01:24:15.743Z,78.96
2022-10-18T01:27:41.320Z,80.24
2022-10-18T01:30:38.065Z,80.01
2022-10-18T01:33:21.071Z,78.96
2022-10-18T01:35:57.409Z,81.30
2022-10-18T01:38:26.704Z,80.87
2022-10-18T01:40:56.103Z,81.27
2022-10-18T01:43:26.540Z,80.15
2022-10-18T01:45:55.883Z,81.44
2022-10-18T01:48:23.884Z,82.21
2022-10-18T01:50:52.703Z,80.66
2022-10-18T01:53:32.036Z,80.67
2022-10-18T01:56:16.283Z,80.52
2022-10-18T01:58:49.088Z,81.06
2022-10-18T02:01:53.621Z,76.95
2022-10-18T02:04:57.998Z,82.05
2022-10-18T02:08:12.201Z,78.90
2022-10-18T02:11:08.611Z,80.49
2022-10-18T02:13:49.968Z,82.63
2022-10-18T02:16:23.065Z,79.81
2022-10-18T02:18:58.946Z,81.90
2022-10-18T02:21:28.231Z,79.13
2022-10-18T02:23:57.931Z,79.55
2022-10-18T02:26:25.491Z,79.74
2022-10-18T02:28:52.732Z,79.39
2022-10-18T02:31:28.452Z,79.26
2022-10-18T02:34:20.427Z,79.10
2022-10-18T02:37:08.953Z,78.71
2022-10-18T02:39:37.694Z,78.53
2022-10-18T02:42:07.075Z,78.25
2022-10-18T02:44:35.385Z,79.56
2022-10-18T02:47:03.407Z,79.58
2022-10-18T02:49:30.397Z,78.76
2022-10-18T02:51:57.363Z,79.81
2022-10-18T02:54:24.436Z,79.78
2022-10-18T02:56:51.908Z,79.36
2022-10-18T02:59:19.032Z,79.77
2022-10-18T03:01:46.280Z,80.86
2022-10-18T03:04:13.513Z,82.12
2022-10-18T03:06:40.624Z,81.07
2022-10-18T03:09:07.918Z,82.23
2022-10-18T03:11:35.020Z,81.08
2022-10-18T03:14:02.167Z,80.29
2022-10-18T03:16:29.084Z,79.68
2022-10-18T03:18:56.193Z,81.13
2022-10-18T03:21:23.467Z,82.64
2022-10-18T03:23:50.672Z,82.04
2022-10-18T03:26:18.585Z,80.92
2022-10-18T03:28:45.715Z,79.97
2022-10-18T03:31:12.689Z,81.80
2022-10-18T03:33:39.999Z,80.49
2022-10-18T03:36:07.100Z,81.49
2022-10-18T03:38:34.404Z,81.45
2022-10-18T03:41:01.507Z,80.37
2022-10-18T03:43:28.405Z,81.32
2022-10-18T03:45:55.545Z,78.61
2022-10-18T03:48:22.708Z,78.81
2022-10-18T03:50:49.830Z,78.89
2022-10-18T03:53:16.780Z,78.38
2022-10-18T03:55:43.893Z,77.99
2022-10-18T03:58:10.869Z,81.46
2022-10-18T04:00:38.123Z,81.25
2022-10-18T04:03:11.025Z,80.04
2022-10-18T04:05:38.195Z,78.22
2022-10-18T04:08:05.525Z,81.60
2022-10-18T04:10:32.513Z,78.17
2022-10-18T04:12:59.632Z,78.55
2022-10-18T04:15:26.609Z,78.76
2022-10-18T04:17:53.675Z,78.52
2022-10-18T04:20:20.669Z,79.05
2022-10-18T04:22:50.022Z,78.81
2022-10-18T04:25:17.664Z,78.82
2022-10-18T04:27:45.049Z,79.82
2022-10-18T04:30:12.216Z,77.92
2022-10-18T04:32:41.971Z,78.02
2022-10-18T04:35:10.479Z,79.98
2022-10-18T04:37:37.701Z,80.12
2022-10-18T04:40:05.456Z,79.04
2022-10-18T04:42:32.765Z,82.05
2022-10-18T04:44:59.705Z,83.01
2022-10-18T04:47:26.813Z,81.71
2022-10-18T04:49:53.740Z,81.60
2022-10-18T04:52:21.026Z,79.46
2022-10-18T04:54:47.954Z,80.42
2022-10-18T04:57:15.083Z,80.96
2022-10-18T04:59:42.185Z,80.13
2022-10-18T05:02:09.495Z,81.15
2022-10-18T05:04:36.485Z,80.45
2022-10-18T05:07:05.893Z,80.47
2022-10-18T05:09:33.365Z,80.75
2022-10-18T05:12:00.464Z,79.37
2022-10-18T05:14:27.648Z,80.77
2022-10-18T05:16:54.536Z,80.45
2022-10-18T05:19:21.843Z,79.08
2022-10-18T05:21:48.778Z,78.39
2022-10-18T05:24:15.935Z,78.84
2022-10-18T05:26:42.922Z,79.96
2022-10-18T05:29:10.161Z,78.25
2022-10-18T05:31:37.126Z,78.56
2022-10-18T05:34:04.888Z,77.60
2022-10-18T05:36:31.894Z,78.44
2022-10-18T05:39:02.404Z,75.76
2022-10-18T05:41:31.443Z,75.94
2022-10-18T05:43:58.754Z,78.60
2022-10-18T05:46:25.725Z,78.56
2022-10-18T05:48:53.025Z,78.27
2022-10-18T05:51:20.020Z,78.75
2022-10-18T05:53:47.563Z,79.97
2022-10-18T05:56:14.834Z,79.76
2022-10-18T05:58:43.118Z,80.44
2022-10-18T06:01:10.466Z,78.68
2022-10-18T06:03:37.911Z,77.95
2022-10-18T06:06:08.666Z,78.04
2022-10-18T06:08:36.706Z,77.33
2022-10-18T06:11:16.337Z,77.91
2022-10-18T06:13:49.833Z,78.28
2022-10-18T06:16:20.800Z,78.17
2022-10-18T06:18:53.253Z,78.82
2022-10-18T06:21:21.216Z,78.10
2022-10-18T06:23:53.748Z,78.66
2022-10-18T06:26:21.068Z,78.56
2022-10-18T06:28:48.113Z,78.15
2022-10-18T06:31:15.968Z,78.70
2022-10-18T06:33:43.264Z,78.07
2022-10-18T06:36:19.829Z,78.13
2022-10-18T06:38:46.813Z,77.53
2022-10-18T06:41:14.070Z,77.83
2022-10-18T06:43:41.350Z,77.64
2022-10-18T06:46:09.308Z,77.47
2022-10-18T06:48:38.537Z,76.79
2022-10-18T06:51:07.601Z,75.59
2022-10-18T06:53:44.228Z,75.76
2022-10-18T06:56:20.640Z,75.87
2022-10-18T06:58:47.624Z,75.80
2022-10-18T07:01:17.744Z,77.01
2022-10-18T07:03:46.833Z,77.48
2022-10-18T07:06:16.669Z,79.06
2022-10-18T07:08:45.191Z,78.72
2022-10-18T07:11:21.724Z,78.05
2022-10-18T07:13:49.005Z,76.55
2022-10-18T07:16:19.100Z,77.59
2022-10-18T07:18:51.675Z,76.47
2022-10-18T07:21:22.509Z,76.03
2022-10-18T07:23:51.016Z,77.22
2022-10-18T07:26:31.080Z,76.47
2022-10-18T07:29:08.843Z,75.82
2022-10-18T07:31:36.716Z,75.49
2022-10-18T07:34:10.191Z,76.18
2022-10-18T07:36:37.332Z,76.00
2022-10-18T07:39:05.289Z,76.39
2022-10-18T07:41:35.645Z,76.65
2022-10-18T07:44:03.673Z,77.03
2022-10-18T07:46:30.822Z,75.85
2022-10-18T07:48:59.504Z,76.25
2022-10-18T07:51:28.072Z,75.76
2022-10-18T07:53:55.050Z,75.68
2022-10-18T07:56:22.257Z,75.17
2022-10-18T07:58:55.374Z,74.63
2022-10-18T08:01:24.724Z,74.71
2022-10-18T08:03:52.595Z,75.22
2022-10-18T08:06:21.851Z,73.35
2022-10-18T08:08:48.765Z,73.63
2022-10-18T08:11:19.950Z,74.51
2022-10-18T08:13:47.491Z,72.53
2022-10-18T08:16:18.966Z,71.89
2022-10-18T08:18:46.096Z,71.60
2022-10-18T08:21:18.075Z,71.70
2022-10-18T08:23:45.169Z,69.65
2022-10-18T08:26:19.185Z,70.38
2022-10-18T08:28:53.942Z,69.49
2022-10-18T08:31:31.158Z,69.46
2022-10-18T08:33:58.176Z,70.82
2022-10-18T08:36:25.647Z,69.18
2022-10-18T08:38:52.838Z,68.24
2022-10-18T08:41:54.936Z,68.82
2022-10-18T08:44:28.736Z,67.38
2022-10-18T08:47:01.183Z,66.25
2022-10-18T08:49:50.488Z,67.56
2022-10-18T08:52:56.026Z,66.71
2022-10-18T08:56:03.972Z,66.92
2022-10-18T08:58:33.559Z,66.52
2022-10-18T09:01:31.257Z,66.65
2022-10-18T09:04:22.753Z,65.74
2022-10-18T09:07:13.949Z,65.51
2022-10-18T09:10:17.181Z,63.30
2022-10-18T09:13:14.809Z,63.87
2022-10-18T09:15:58.621Z,63.73
2022-10-18T09:18:59.583Z,64.35
2022-10-18T09:21:53.608Z,65.11
2022-10-18T09:24:44.531Z,65.48
2022-10-18T09:27:22.281Z,64.83
2022-10-18T09:29:49.065Z,64.25
2022-10-18T09:32:31.347Z,64.42
2022-10-18T09:35:21.692Z,62.95
2022-10-18T09:37:53.350Z,64.38
2022-10-18T09:40:29.096Z,63.72
2022-10-18T09:43:08.174Z,62.50
2022-10-18T09:45:43.919Z,64.08
2022-10-18T09:48:29.230Z,62.90
2022-10-18T09:51:15.062Z,62.64
2022-10-18T09:54:16.019Z,62.37
2022-10-18T09:57:02.800Z,61.39
2022-10-18T09:59:42.851Z,62.59
2022-10-18T10:02:19.573Z,62.62
2022-10-18T10:04:46.529Z,62.99
2022-10-18T10:07:32.559Z,61.43
2022-10-18T10:10:23.974Z,61.55
2022-10-18T10:13:23.314Z,61.73
2022-10-18T10:16:02.948Z,62.49
2022-10-18T10:18:36.578Z,62.42
2022-10-18T10:21:13.485Z,62.34
2022-10-18T10:23:57.732Z,62.15
2022-10-18T10:26:33.365Z,61.56
2022-10-18T10:29:00.705Z,62.65
2022-10-18T10:31:32.569Z,61.80
2022-10-18T10:34:19.021Z,61.47
2022-10-18T10:36:54.761Z,61.35
2022-10-18T10:39:24.650Z,61.31
2022-10-18T10:41:58.814Z,62.79
2022-10-18T10:44:30.415Z,63.34
2022-10-18T10:46:57.968Z,62.75
2022-10-18T10:49:41.187Z,63.37
2022-10-18T10:52:27.768Z,62.10
2022-10-18T10:57:48.750Z,61.56
2022-10-18T11:00:39.537Z,61.85
2022-10-18T11:03:33.770Z,60.88
2022-10-18T11:06:01.861Z,61.16
2022-10-18T11:08:38.733Z,60.64
2022-10-18T11:11:41.169Z,60.37
2022-10-18T11:14:27.078Z,58.54
2022-10-18T11:17:32.446Z,61.35
2022-10-18T11:20:02.078Z,60.34
2022-10-18T11:22:58.766Z,60.30
2022-10-18T11:25:43.229Z,59.53
2022-10-18T11:28:57.841Z,58.51
2022-10-18T11:31:46.532Z,58.78
2022-10-18T11:34:38.478Z,58.88
2022-10-18T11:37:58.459Z,58.90
2022-10-18T11:40:59.326Z,59.79
2022-10-18T11:44:02.189Z,57.38
2022-10-18T11:47:08.240Z,59.92
2022-10-18T11:50:01.686Z,58.30
2022-10-18T11:53:04.549Z,59.40
2022-10-18T11:56:15.841Z,59.56
2022-10-18T11:59:03.125Z,59.15
2022-10-18T12:01:36.175Z,58.54
2022-10-18T12:04:14.395Z,57.27
2022-10-18T12:06:45.670Z,56.16
2022-10-18T12:09:40.266Z,57.02
2022-10-18T12:12:27.927Z,56.28
2022-10-18T12:15:01.843Z,58.66
2022-10-18T12:17:49.077Z,55.94
2022-10-18T12:20:24.956Z,55.98
2022-10-18T12:23:12.546Z,55.64
2022-10-18T12:25:46.731Z,54.75
2022-10-18T12:28:30.234Z,54.94
2022-10-18T12:31:50.703Z,56.41
2022-10-18T12:34:56.986Z,54.80
2022-10-18T12:38:06.169Z,53.05
2022-10-18T12:40:41.369Z,53.31
2022-10-18T12:43:26.046Z,54.93
2022-10-18T12:45:57.875Z,54.14
2022-10-18T12:48:42.384Z,54.40
2022-10-18T12:51:23.282Z,53.17
2022-10-18T12:54:12.503Z,55.84
2022-10-18T12:56:43.145Z,54.09
2022-10-18T12:59:16.057Z,54.68
2022-10-18T13:01:54.536Z,57.53
2022-10-18T13:04:33.731Z,54.66
2022-10-18T13:07:32.330Z,50.60
2022-10-18T13:10:12.766Z,56.63
2022-10-18T13:12:50.049Z,55.56
2022-10-18T13:15:46.492Z,53.96
2022-10-18T13:18:48.225Z,54.08
2022-10-18T13:21:50.052Z,57.00
2022-10-18T13:24:43.368Z,56.74
2022-10-18T13:27:35.892Z,58.68
2022-10-18T13:30:35.573Z,55.34
2022-10-18T13:33:35.320Z,56.45
2022-10-18T13:36:22.842Z,57.85
2022-10-18T13:38:57.712Z,56.85
2022-10-18T13:41:34.543Z,58.03
2022-10-18T13:44:40.419Z,55.29
2022-10-18T13:47:07.240Z,56.75
2022-10-18T13:49:59.299Z,54.83
2022-10-18T13:52:54.613Z,57.63
2022-10-18T13:56:01.228Z,57.75
2022-10-18T13:59:15.135Z,55.63
2022-10-18T14:01:59.735Z,57.15
2022-10-18T14:05:23.676Z,53.39
2022-10-18T14:07:58.424Z,54.61
2022-10-18T14:11:02.489Z,55.17
2022-10-18T14:14:36.619Z,50.46
2022-10-18T14:18:00.877Z,57.13
2022-10-18T14:21:12.405Z,53.97
2022-10-18T14:23:44.754Z,50.78
2022-10-18T14:26:21.039Z,51.54
2022-10-18T14:29:07.107Z,51.14
2022-10-18T14:31:35.095Z,52.55
2022-10-18T14:34:03.302Z,52.84
2022-10-18T14:36:42.216Z,52.11
2022-10-18T14:39:21.595Z,53.05
2022-10-18T14:41:58.001Z,50.85
2022-10-18T14:44:28.931Z,52.94
2022-10-18T14:46:55.736Z,50.80
2022-10-18T14:49:23.071Z,52.93
2022-10-18T14:51:53.822Z,51.98
2022-10-18T14:54:31.949Z,52.89
2022-10-18T14:57:02.501Z,54.55
2022-10-18T14:59:36.868Z,57.73
2022-10-18T15:02:23.833Z,56.23
2022-10-18T15:05:16.493Z,53.56
2022-10-18T15:07:44.846Z,51.51
2022-10-18T15:10:25.851Z,53.17
2022-10-18T15:13:10.940Z,50.34
2022-10-18T15:15:39.543Z,51.35
2022-10-18T15:18:08.192Z,51.53
2022-10-18T15:20:42.521Z,52.19
2022-10-18T15:23:31.409Z,52.14
2022-10-18T15:26:29.441Z,52.25
2022-10-18T15:29:01.505Z,51.75
2022-10-18T15:31:34.638Z,53.30
2022-10-18T15:34:26.189Z,52.58
2022-10-18T15:36:57.308Z,53.18
2022-10-18T15:39:27.798Z,52.23
2022-10-18T15:42:03.120Z,53.15
2022-10-18T15:44:35.128Z,54.43
2022-10-18T15:47:20.306Z,55.73
2022-10-18T15:49:51.130Z,57.36
2022-10-18T15:52:39.454Z,54.67
2022-10-18T15:55:31.517Z,56.98
2022-10-18T15:58:15.989Z,56.24
2022-10-18T16:00:45.054Z,56.00
2022-10-18T16:03:12.605Z,57.64
2022-10-18T16:05:40.043Z,57.56
2022-10-18T16:08:16.428Z,56.98
2022-10-18T16:10:43.351Z,56.87
2022-10-18T16:13:10.473Z,57.22
2022-10-18T16:15:40.988Z,57.76
2022-10-18T16:18:18.044Z,59.85
2022-10-18T16:20:46.112Z,61.86
2022-10-18T16:23:29.332Z,61.08
2022-10-18T16:25:56.421Z,60.83
2022-10-18T16:28:25.622Z,61.44
2022-10-18T16:31:00.360Z,62.57
2022-10-18T16:33:27.434Z,62.70
2022-10-18T16:35:54.927Z,63.28
2022-10-18T16:38:42.826Z,62.90
2022-10-18T16:41:10.849Z,63.18
2022-10-18T16:43:38.577Z,63.57
2022-10-18T16:46:07.866Z,64.42
2022-10-18T16:48:35.273Z,64.89
2022-10-18T16:51:02.406Z,64.24
2022-10-18T16:53:29.741Z,65.16
2022-10-18T16:56:00.805Z,65.53
2022-10-18T16:58:29.980Z,65.85
2022-10-18T17:00:57.927Z,65.72
2022-10-18T17:03:26.224Z,66.15
2022-10-18T17:05:54.164Z,66.04
2022-10-18T17:08:25.122Z,66.52
2022-10-18T17:10:56.390Z,67.72
2022-10-18T17:13:24.821Z,67.03
2022-10-18T17:15:52.889Z,67.47
2022-10-18T17:18:26.288Z,68.52
2022-10-18T17:20:53.676Z,67.77
2022-10-18T17:23:20.656Z,69.07
2022-10-18T17:25:59.117Z,69.21
2022-10-18T17:28:34.928Z,67.29
2022-10-18T17:31:01.897Z,67.32
2022-10-18T17:33:29.188Z,67.32
2022-10-18T17:35:56.118Z,67.21
2022-10-18T17:38:23.047Z,68.63
2022-10-18T17:40:52.717Z,68.57
2022-10-18T17:43:19.998Z,68.39
2022-10-18T17:45:55.463Z,70.83
2022-10-18T17:48:24.495Z,69.71
2022-10-18T17:50:51.526Z,69.95
2022-10-18T17:53:22.744Z,71.00
2022-10-18T17:55:49.740Z,70.85
2022-10-18T17:58:17.046Z,70.11
2022-10-18T18:00:44.052Z,71.92
2022-10-18T18:03:11.089Z,70.80
2022-10-18T18:05:38.025Z,70.88
2022-10-18T18:08:05.317Z,71.19
2022-10-18T18:10:33.845Z,71.42
2022-10-18T18:13:01.714Z,72.72
2022-10-18T18:15:47.590Z,72.23
2022-10-18T18:18:14.668Z,71.81
2022-10-18T18:20:41.567Z,70.83
2022-10-18T18:23:08.512Z,69.03
2022-10-18T18:25:35.432Z,70.41
2022-10-18T18:28:05.226Z,73.06
2022-10-18T18:30:34.412Z,72.33
2022-10-18T18:33:01.634Z,70.37
2022-10-18T18:35:28.534Z,73.73
2022-10-18T18:37:55.544Z,73.86
2022-10-18T18:40:24.009Z,74.62
2022-10-18T18:43:07.317Z,72.76
2022-10-18T18:45:38.400Z,73.88
2022-10-18T18:48:05.821Z,73.78
2022-10-18T18:50:35.052Z,72.77
2022-10-18T18:53:02.186Z,75.12
2022-10-18T18:55:31.198Z,74.25
2022-10-18T18:57:58.424Z,74.62
2022-10-18T19:00:25.560Z,74.69
2022-10-18T19:02:52.517Z,74.34
2022-10-18T19:05:19.780Z,73.24
2022-10-18T19:07:46.722Z,75.18
2022-10-18T19:10:13.724Z,74.47
2022-10-18T19:12:40.720Z,74.68
2022-10-18T19:15:08.305Z,74.50
2022-10-18T19:17:35.541Z,75.48
2022-10-18T19:20:04.997Z,76.82
2022-10-18T19:22:31.974Z,75.96
2022-10-18T19:24:58.909Z,75.32
2022-10-18T19:27:25.894Z,75.64
2022-10-18T19:29:52.873Z,77.21
2022-10-18T19:32:20.291Z,76.33
2022-10-18T19:34:47.241Z,76.50
2022-10-18T19:37:15.897Z,77.06
2022-10-18T19:39:42.940Z,74.95
2022-10-18T19:42:17.438Z,75.51
2022-10-18T19:44:48.022Z,77.06
2022-10-18T19:47:15.319Z,74.81
2022-10-18T19:49:46.242Z,75.02
2022-10-18T19:52:13.523Z,74.43
2022-10-18T19:54:40.624Z,76.61
2022-10-18T19:57:07.662Z,74.58
2022-10-18T19:59:36.012Z,73.52
2022-10-18T20:02:04.727Z,72.77
2022-10-18T20:04:34.674Z,72.64
2022-10-18T20:07:02.799Z,73.06
2022-10-18T20:09:30.048Z,73.41
2022-10-18T20:11:57.101Z,72.04
2022-10-18T20:14:24.139Z,74.88
2022-10-18T20:16:51.366Z,76.02
2022-10-18T20:19:18.409Z,76.54
2022-10-18T20:21:45.529Z,76.64
2022-10-18T20:24:12.587Z,77.54
2022-10-18T20:26:39.903Z,75.71
2022-10-18T20:29:07.864Z,73.60
2022-10-18T20:31:38.326Z,73.21
2022-10-18T20:34:13.711Z,73.21
2022-10-18T20:36:40.979Z,76.77
2022-10-18T20:39:09.483Z,75.43
2022-10-18T20:41:40.992Z,75.89
2022-10-18T20:44:13.407Z,75.60
2022-10-18T20:46:41.500Z,73.30
2022-10-18T20:49:12.581Z,77.14
2022-10-18T20:51:39.895Z,77.03
2022-10-18T20:54:09.537Z,75.96
2022-10-18T20:56:38.712Z,75.88
2022-10-18T20:59:09.437Z,76.46
2022-10-18T21:01:38.337Z,74.69
2022-10-18T21:04:08.441Z,73.91
2022-10-18T21:06:42.211Z,74.29
2022-10-18T21:09:18.953Z,76.56
2022-10-18T21:11:50.197Z,76.01
2022-10-18T21:14:23.384Z,75.75
2022-10-18T21:16:52.186Z,75.10
2022-10-18T21:19:26.233Z,74.94
2022-10-18T21:21:56.328Z,75.77
2022-10-18T21:24:25.171Z,76.12
2022-10-18T21:26:52.436Z,76.52
2022-10-18T21:29:22.228Z,75.08
2022-10-18T21:31:53.777Z,74.56
2022-10-18T21:34:21.052Z,73.99
2022-10-18T21:36:49.003Z,74.71
2022-10-18T21:39:20.113Z,77.32
2022-10-18T21:41:47.833Z,76.96
2022-10-18T21:44:15.890Z,76.07
2022-10-18T21:46:43.322Z,76.92
2022-10-18T21:49:10.831Z,76.36
2022-10-18T21:51:38.514Z,75.62
2022-10-18T21:54:10.804Z,73.58
2022-10-18T21:56:37.814Z,77.19
2022-10-18T21:59:05.442Z,76.49
2022-10-18T22:01:38.400Z,77.88
2022-10-18T22:04:25.219Z,76.00
2022-10-18T22:06:52.892Z,75.41
2022-10-18T22:09:21.439Z,75.39
2022-10-18T22:11:52.607Z,75.30
2022-10-18T22:14:20.423Z,75.64
2022-10-18T22:16:47.960Z,76.00
2022-10-18T22:19:14.943Z,75.28
2022-10-18T22:21:42.212Z,74.30
2022-10-18T22:24:10.235Z,76.68
2022-10-18T22:26:40.965Z,77.28
2022-10-18T22:29:14.878Z,77.04
2022-10-18T22:31:46.539Z,76.82
2022-10-18T22:34:21.416Z,75.00
2022-10-18T22:36:48.716Z,73.62
2022-10-18T22:39:16.861Z,75.14
2022-10-18T22:41:44.713Z,75.24
2022-10-18T22:44:13.987Z,75.13
2022-10-18T22:46:42.257Z,74.82
2022-10-18T22:49:09.357Z,76.41
2022-10-18T22:51:36.517Z,74.17
2022-10-18T22:54:03.874Z,75.32
2022-10-18T22:56:30.848Z,73.79
2022-10-18T22:58:58.034Z,77.40
2022-10-18T23:01:25.639Z,78.97
2022-10-18T23:03:57.785Z,79.86
2022-10-18T23:06:32.794Z,83.19
2022-10-18T23:09:04.922Z,81.48
2022-10-18T23:11:32.860Z,82.08
2022-10-18T23:14:00.768Z,82.39
2022-10-18T23:16:29.620Z,79.92
2022-10-18T23:18:58.185Z,79.22
2022-10-18T23:21:28.261Z,78.37
2022-10-18T23:23:56.573Z,75.84
2022-10-18T23:26:26.370Z,77.44
2022-10-18T23:28:54.687Z,81.37
2022-10-18T23:31:28.360Z,81.84
2022-10-18T23:33:57.858Z,82.19
2022-10-18T23:36:25.322Z,81.96
2022-10-18T23:38:52.536Z,82.53
2022-10-18T23:41:20.241Z,81.44
2022-10-18T23:43:47.606Z,77.74
2022-10-18T23:46:16.430Z,77.33
2022-10-18T23:48:44.200Z,76.05
2022-10-18T23:51:11.265Z,75.54
2022-10-18T23:53:38.897Z,75.57
2022-10-18T23:56:10.758Z,78.21
2022-10-18T23:58:39.159Z,78.72
